createdAt,value
2023-05-21T00:02:21.559Z,8.70
2023-05-21T00:04:48.132Z,8.90
2023-05-21T00:07:14.791Z,8.77
2023-05-21T00:09:41.336Z,9.23
2023-05-21T00:12:08.890Z,8.93
2023-05-21T00:14:36.139Z,8.43
2023-05-21T00:17:02.872Z,8.87
2023-05-21T00:19:29.522Z,9.63
2023-05-21T00:21:56.879Z,9.27
2023-05-21T00:24:23.436Z,9.07
2023-05-21T00:26:50.024Z,8.73
2023-05-21T00:29:16.563Z,8.77
2023-05-21T00:31:43.184Z,10.97
2023-05-21T00:34:09.778Z,17.40
2023-05-21T00:36:36.311Z,14.07
2023-05-21T00:39:05.560Z,22.07
2023-05-21T00:41:34.560Z,11.40
2023-05-21T00:44:02.461Z,9.57
2023-05-21T00:46:29.242Z,8.80
2023-05-21T00:48:57.318Z,9.33
2023-05-21T00:51:24.164Z,10.70
2023-05-21T00:53:52.361Z,11.73
2023-05-21T00:56:22.120Z,17.43
2023-05-21T00:58:51.066Z,14.57
2023-05-21T01:01:18.633Z,15.03
2023-05-21T01:03:45.501Z,15.17
2023-05-21T01:06:13.412Z,11.13
2023-05-21T01:08:41.419Z,14.07
2023-05-21T01:11:10.141Z,9.90
2023-05-21T01:13:40.635Z,10.20
2023-05-21T01:16:08.540Z,9.70
2023-05-21T01:18:36.898Z,8.83
2023-05-21T01:21:04.484Z,9.07
2023-05-21T01:23:31.604Z,9.67
2023-05-21T01:25:58.181Z,9.33
2023-05-21T01:28:24.710Z,13.73
2023-05-21T01:30:51.666Z,10.43
2023-05-21T01:33:47.019Z,10.30
2023-05-21T01:36:33.935Z,9.40
2023-05-21T01:39:43.536Z,10.70
2023-05-21T01:42:13.826Z,10.10
2023-05-21T01:44:41.277Z,10.40
2023-05-21T01:47:08.381Z,16.33
2023-05-21T01:49:35.228Z,11.03
2023-05-21T01:52:01.952Z,12.47
2023-05-21T01:54:28.517Z,8.30
2023-05-21T01:56:55.279Z,12.30
2023-05-21T01:59:21.809Z,8.90
2023-05-21T02:01:48.463Z,8.47
2023-05-21T02:04:15.061Z,8.57
2023-05-21T02:06:41.623Z,10.70
2023-05-21T02:09:08.161Z,10.60
2023-05-21T02:11:34.862Z,9.30
2023-05-21T02:14:03.113Z,14.07
2023-05-21T02:16:29.700Z,10.60
2023-05-21T02:18:57.363Z,10.90
2023-05-21T02:21:24.063Z,10.20
2023-05-21T02:23:50.613Z,9.73
2023-05-21T02:26:17.154Z,10.70
2023-05-21T02:28:43.955Z,10.17
2023-05-21T02:31:10.897Z,11.30
2023-05-21T02:33:41.087Z,11.00
2023-05-21T02:36:12.447Z,9.97
2023-05-21T02:38:42.848Z,10.90
2023-05-21T02:41:10.921Z,16.77
2023-05-21T02:43:37.438Z,12.90
2023-05-21T02:46:06.090Z,12.90
2023-05-21T02:48:32.743Z,11.47
2023-05-21T02:50:59.348Z,12.67
2023-05-21T02:53:26.046Z,10.60
2023-05-21T02:55:52.592Z,13.37
2023-05-21T02:58:19.159Z,10.43
2023-05-21T03:00:45.683Z,9.47
2023-05-21T03:03:12.378Z,9.40
2023-05-21T03:05:39.006Z,10.73
2023-05-21T03:08:05.546Z,10.07
2023-05-21T03:10:32.086Z,9.63
2023-05-21T03:12:58.647Z,13.17
2023-05-21T03:15:25.650Z,10.67
2023-05-21T03:17:53.462Z,8.93
2023-05-21T03:20:20.000Z,8.70
2023-05-21T03:22:47.480Z,10.27
2023-05-21T03:25:14.358Z,9.83
2023-05-21T03:27:40.919Z,9.70
2023-05-21T03:30:08.804Z,10.80
2023-05-21T03:32:37.099Z,10.33
2023-05-21T03:35:04.558Z,11.53
2023-05-21T03:37:31.069Z,13.40
2023-05-21T03:39:57.746Z,11.90
2023-05-21T03:42:24.285Z,12.77
2023-05-21T03:44:50.839Z,10.47
2023-05-21T03:47:17.386Z,9.93
2023-05-21T03:49:43.924Z,8.90
2023-05-21T03:52:10.459Z,9.57
2023-05-21T03:54:37.008Z,9.70
2023-05-21T03:57:03.651Z,13.13
2023-05-21T03:59:30.223Z,10.10
2023-05-21T04:01:56.762Z,10.20
2023-05-21T04:04:23.304Z,9.87
2023-05-21T04:06:53.535Z,9.30
2023-05-21T04:09:20.187Z,8.57
2023-05-21T04:11:47.198Z,7.73
2023-05-21T04:14:13.945Z,6.90
2023-05-21T04:16:43.258Z,7.60
2023-05-21T04:19:09.916Z,9.40
2023-05-21T04:21:36.474Z,8.53
2023-05-21T04:24:03.148Z,8.50
2023-05-21T04:26:33.629Z,9.03
2023-05-21T04:29:03.042Z,9.20
2023-05-21T04:31:31.757Z,9.67
2023-05-21T04:33:58.782Z,9.53
2023-05-21T04:36:28.281Z,8.77
2023-05-21T04:38:55.153Z,9.40
2023-05-21T04:41:21.913Z,9.90
2023-05-21T04:43:48.509Z,9.97
2023-05-21T04:46:15.131Z,9.73
2023-05-21T04:48:41.739Z,10.07
2023-05-21T04:51:08.270Z,10.13
2023-05-21T04:53:35.222Z,9.63
2023-05-21T04:56:03.218Z,10.17
2023-05-21T04:58:32.160Z,10.97
2023-05-21T05:01:02.222Z,9.33
2023-05-21T05:03:29.472Z,10.00
2023-05-21T05:05:56.136Z,10.35
2023-05-21T05:08:22.705Z,11.38
2023-05-21T05:10:49.268Z,10.40
2023-05-21T05:13:15.800Z,9.75
2023-05-21T05:15:42.392Z,10.63
2023-05-21T05:18:09.042Z,10.55
2023-05-21T05:20:35.617Z,10.57
2023-05-21T05:23:02.147Z,10.82
2023-05-21T05:25:28.702Z,9.68
2023-05-21T05:27:55.271Z,10.73
2023-05-21T05:30:21.768Z,10.65
2023-05-21T05:32:48.331Z,10.82
2023-05-21T05:35:14.967Z,11.00
2023-05-21T05:37:41.545Z,10.60
2023-05-21T05:40:08.590Z,11.73
2023-05-21T05:42:35.150Z,10.85
2023-05-21T05:45:01.747Z,10.70
2023-05-21T05:47:28.315Z,10.68
2023-05-21T05:49:54.839Z,12.00
2023-05-21T05:52:21.407Z,11.35
2023-05-21T05:54:47.914Z,10.88
2023-05-21T05:57:14.461Z,11.48
2023-05-21T05:59:40.983Z,11.12
2023-05-21T06:02:07.653Z,11.20
2023-05-21T06:04:34.231Z,11.23
2023-05-21T06:07:00.862Z,10.82
2023-05-21T06:09:27.414Z,11.40
2023-05-21T06:11:54.035Z,10.13
2023-05-21T06:14:20.586Z,10.88
2023-05-21T06:16:47.163Z,10.00
2023-05-21T06:19:13.815Z,10.85
2023-05-21T06:21:40.335Z,10.95
2023-05-21T06:24:07.026Z,10.45
2023-05-21T06:26:33.809Z,11.05
2023-05-21T06:29:00.447Z,10.13
2023-05-21T06:31:27.224Z,10.27
2023-05-21T06:33:53.899Z,10.70
2023-05-21T06:36:20.867Z,10.48
2023-05-21T06:38:47.398Z,10.23
2023-05-21T06:41:13.952Z,10.50
2023-05-21T06:43:40.457Z,11.18
2023-05-21T06:46:07.092Z,11.90
2023-05-21T06:48:33.651Z,10.40
2023-05-21T06:51:00.183Z,10.15
2023-05-21T06:53:27.352Z,10.80
2023-05-21T06:55:54.019Z,10.98
2023-05-21T06:58:20.873Z,10.68
2023-05-21T07:00:47.845Z,9.90
2023-05-21T07:03:15.003Z,10.65
2023-05-21T07:05:41.732Z,10.32
2023-05-21T07:08:09.113Z,9.77
2023-05-21T07:10:37.201Z,10.18
2023-05-21T07:13:03.747Z,9.82
2023-05-21T07:15:30.330Z,10.48
2023-05-21T07:17:56.951Z,10.20
2023-05-21T07:20:23.597Z,10.80
2023-05-21T07:22:50.148Z,10.35
2023-05-21T07:25:16.712Z,10.60
2023-05-21T07:27:43.288Z,10.45
2023-05-21T07:30:10.776Z,10.50
2023-05-21T07:32:37.381Z,11.18
2023-05-21T07:35:04.451Z,10.77
2023-05-21T07:37:31.043Z,11.40
2023-05-21T07:39:58.094Z,10.77
2023-05-21T07:42:25.816Z,10.95
2023-05-21T07:44:52.403Z,11.60
2023-05-21T07:47:18.977Z,10.57
2023-05-21T07:49:45.525Z,10.15
2023-05-21T07:52:12.140Z,10.85
2023-05-21T07:54:38.668Z,10.60
2023-05-21T07:57:05.494Z,10.55
2023-05-21T07:59:32.878Z,10.48
2023-05-21T08:01:59.741Z,11.18
2023-05-21T08:04:26.564Z,10.65
2023-05-21T08:06:53.210Z,9.95
2023-05-21T08:09:19.732Z,9.60
2023-05-21T08:11:46.477Z,10.38
2023-05-21T08:14:12.999Z,10.68
2023-05-21T08:16:39.594Z,10.55
2023-05-21T08:19:06.207Z,11.00
2023-05-21T08:21:33.354Z,10.95
2023-05-21T08:23:59.904Z,11.12
2023-05-21T08:26:26.708Z,10.77
2023-05-21T08:28:53.224Z,10.82
2023-05-21T08:31:20.056Z,11.05
2023-05-21T08:33:53.803Z,10.77
2023-05-21T08:36:20.573Z,10.38
2023-05-21T08:38:47.147Z,10.45
2023-05-21T08:41:14.571Z,9.75
2023-05-21T08:43:43.050Z,10.13
2023-05-21T08:46:10.185Z,9.98
2023-05-21T08:48:38.308Z,9.60
2023-05-21T08:51:05.653Z,9.43
2023-05-21T08:53:33.941Z,10.00
2023-05-21T08:56:01.885Z,9.73
2023-05-21T08:58:31.511Z,10.13
2023-05-21T09:00:58.300Z,9.25
2023-05-21T09:03:26.004Z,9.63
2023-05-21T09:05:54.485Z,10.18
2023-05-21T09:08:45.383Z,9.55
2023-05-21T09:11:13.327Z,10.13
2023-05-21T09:13:42.912Z,9.70
2023-05-21T09:16:10.681Z,9.48
2023-05-21T09:18:37.255Z,8.80
2023-05-21T09:21:29.519Z,9.20
2023-05-21T09:23:58.239Z,8.52
2023-05-21T09:26:25.843Z,9.23
2023-05-21T09:28:58.652Z,8.07
2023-05-21T09:31:29.399Z,8.57
2023-05-21T09:33:56.003Z,9.18
2023-05-21T09:36:22.661Z,9.65
2023-05-21T09:38:53.927Z,8.95
2023-05-21T09:41:31.429Z,9.55
2023-05-21T09:44:04.219Z,9.13
2023-05-21T09:46:40.713Z,9.52
2023-05-21T09:49:21.329Z,9.07
2023-05-21T09:51:47.883Z,9.10
2023-05-21T09:54:14.389Z,9.50
2023-05-21T09:56:41.394Z,8.70
2023-05-21T09:59:08.177Z,8.93
2023-05-21T10:01:35.318Z,9.07
2023-05-21T10:04:07.176Z,9.70
2023-05-21T10:06:41.520Z,8.60
2023-05-21T10:09:10.930Z,8.88
2023-05-21T10:11:42.353Z,9.15
2023-05-21T10:14:31.437Z,8.52
2023-05-21T10:17:00.067Z,8.65
2023-05-21T10:19:29.759Z,8.57
2023-05-21T10:21:56.944Z,8.60
2023-05-21T10:24:24.545Z,8.32
2023-05-21T10:26:51.784Z,9.68
2023-05-21T10:29:20.544Z,8.73
2023-05-21T10:31:48.920Z,8.65
2023-05-21T10:34:15.929Z,8.88
2023-05-21T10:36:44.315Z,9.23
2023-05-21T10:39:13.981Z,8.65
2023-05-21T10:41:59.063Z,9.27
2023-05-21T10:48:34.882Z,8.98
2023-05-21T10:51:29.836Z,8.23
2023-05-21T10:59:26.157Z,8.27
2023-05-21T11:01:54.511Z,8.45
2023-05-21T11:04:27.175Z,8.85
2023-05-21T11:06:53.983Z,8.80
2023-05-21T11:09:20.534Z,8.35
2023-05-21T11:11:58.120Z,8.77
2023-05-21T11:14:42.350Z,8.35
2023-05-21T11:17:37.954Z,8.70
2023-05-21T11:20:16.492Z,8.98
2023-05-21T11:22:45.965Z,8.90
2023-05-21T11:25:12.832Z,8.02
2023-05-21T11:27:41.396Z,8.68
2023-05-21T11:30:14.200Z,9.68
2023-05-21T11:33:17.419Z,8.50
2023-05-21T11:36:17.206Z,9.00
2023-05-21T11:39:10.201Z,8.20
2023-05-21T11:41:56.570Z,8.73
2023-05-21T11:44:48.352Z,9.00
2023-05-21T11:47:18.507Z,8.75
2023-05-21T11:49:45.921Z,8.45
2023-05-21T11:52:13.962Z,7.97
2023-05-21T11:54:49.770Z,7.93
2023-05-21T11:57:20.719Z,7.60
2023-05-21T11:59:50.788Z,8.40
2023-05-21T12:02:21.539Z,7.85
2023-05-21T12:04:50.845Z,8.55
2023-05-21T12:07:21.275Z,8.00
2023-05-21T12:09:50.282Z,7.75
2023-05-21T12:12:22.133Z,7.70
2023-05-21T12:14:54.044Z,7.28
2023-05-21T12:17:23.053Z,7.60
2023-05-21T12:19:58.108Z,7.45
2023-05-21T12:22:27.225Z,7.87
2023-05-21T12:24:54.009Z,7.53
2023-05-21T12:27:21.975Z,7.85
2023-05-21T12:29:52.870Z,8.02
2023-05-21T12:32:21.232Z,7.28
2023-05-21T12:34:53.901Z,8.43
2023-05-21T12:37:25.921Z,7.82
2023-05-21T12:39:55.683Z,8.15
2023-05-21T12:42:40.573Z,8.05
2023-05-21T12:45:09.514Z,7.70
2023-05-21T12:47:36.222Z,7.65
2023-05-21T12:50:10.879Z,7.90
2023-05-21T12:52:40.570Z,7.90
2023-05-21T12:55:09.762Z,7.82
2023-05-21T12:57:40.233Z,7.43
2023-05-21T13:00:08.273Z,7.70
2023-05-21T13:02:41.956Z,8.68
2023-05-21T13:05:16.752Z,8.05
2023-05-21T13:07:45.902Z,7.78
2023-05-21T13:10:13.379Z,7.18
2023-05-21T13:12:41.183Z,7.60
2023-05-21T13:15:10.349Z,7.53
2023-05-21T13:17:37.042Z,7.35
2023-05-21T13:20:11.899Z,7.07
2023-05-21T13:22:52.241Z,7.18
2023-05-21T13:25:27.675Z,7.10
2023-05-21T13:27:54.537Z,7.15
2023-05-21T13:30:22.009Z,6.85
2023-05-21T13:32:48.874Z,7.40
2023-05-21T13:35:15.762Z,7.07
2023-05-21T13:37:42.349Z,6.82
2023-05-21T13:40:11.338Z,7.70
2023-05-21T13:42:38.486Z,7.25
2023-05-21T13:45:06.941Z,7.87
2023-05-21T13:47:34.633Z,7.30
2023-05-21T13:50:02.585Z,7.37
2023-05-21T13:52:29.187Z,7.72
2023-05-21T13:54:55.742Z,7.75
2023-05-21T13:57:22.456Z,7.55
2023-05-21T13:59:50.015Z,7.25
2023-05-21T14:02:16.681Z,7.20
2023-05-21T14:04:43.256Z,7.60
2023-05-21T14:07:11.356Z,7.72
2023-05-21T14:09:38.047Z,7.12
2023-05-21T14:12:06.629Z,7.53
2023-05-21T14:14:33.383Z,7.32
2023-05-21T14:17:00.212Z,8.05
2023-05-21T14:19:26.930Z,7.55
2023-05-21T14:21:53.532Z,7.78
2023-05-21T14:24:20.065Z,7.35
2023-05-21T14:26:46.637Z,7.93
2023-05-21T14:29:13.432Z,7.32
2023-05-21T14:31:40.051Z,7.22
2023-05-21T14:34:08.031Z,7.30
2023-05-21T14:36:35.570Z,7.25
2023-05-21T14:39:02.558Z,7.70
2023-05-21T14:41:29.243Z,7.60
2023-05-21T14:43:56.032Z,7.15
2023-05-21T14:46:22.714Z,7.32
2023-05-21T14:48:49.629Z,7.75
2023-05-21T14:51:16.184Z,7.75
2023-05-21T14:53:42.740Z,8.43
2023-05-21T14:56:09.338Z,8.10
2023-05-21T14:58:35.889Z,7.55
2023-05-21T15:01:03.509Z,8.02
2023-05-21T15:03:30.139Z,7.60
2023-05-21T15:05:57.767Z,7.80
2023-05-21T15:08:24.587Z,7.75
2023-05-21T15:10:51.123Z,7.37
2023-05-21T15:13:17.629Z,7.35
2023-05-21T15:15:44.236Z,7.37
2023-05-21T15:18:11.121Z,7.37
2023-05-21T15:20:37.720Z,7.87
2023-05-21T15:23:15.986Z,8.07
2023-05-21T15:25:43.775Z,7.68
2023-05-21T15:28:11.242Z,7.60
2023-05-21T15:30:37.810Z,7.32
2023-05-21T15:33:04.308Z,7.87
2023-05-21T15:35:31.005Z,7.62
2023-05-21T15:37:57.622Z,8.38
2023-05-21T15:40:26.764Z,7.85
2023-05-21T15:42:53.794Z,7.97
2023-05-21T15:45:20.573Z,7.95
2023-05-21T15:47:48.095Z,8.27
2023-05-21T15:50:14.880Z,7.75
2023-05-21T15:52:42.110Z,7.78
2023-05-21T15:55:09.259Z,7.80
2023-05-21T15:57:35.848Z,7.50
2023-05-21T16:00:03.110Z,7.45
2023-05-21T16:02:29.736Z,8.07
2023-05-21T16:04:56.332Z,7.60
2023-05-21T16:07:23.769Z,7.62
2023-05-21T16:09:50.338Z,8.02
2023-05-21T16:12:17.324Z,8.07
2023-05-21T16:14:43.894Z,8.00
2023-05-21T16:17:10.616Z,7.93
2023-05-21T16:19:37.441Z,8.13
2023-05-21T16:22:04.246Z,7.82
2023-05-21T16:24:30.784Z,8.75
2023-05-21T16:26:57.653Z,8.68
2023-05-21T16:29:24.191Z,8.85
2023-05-21T16:31:50.799Z,8.68
2023-05-21T16:34:17.395Z,8.18
2023-05-21T16:36:43.942Z,8.15
2023-05-21T16:39:10.476Z,8.38
2023-05-21T16:41:37.034Z,8.10
2023-05-21T16:44:03.591Z,8.05
2023-05-21T16:46:30.230Z,8.30
2023-05-21T16:48:56.849Z,7.55
2023-05-21T16:51:23.420Z,8.13
2023-05-21T16:53:49.952Z,8.68
2023-05-21T16:56:16.503Z,7.85
2023-05-21T16:58:43.048Z,8.05
2023-05-21T17:01:09.680Z,8.20
2023-05-21T17:03:36.400Z,7.82
2023-05-21T17:06:03.160Z,8.80
2023-05-21T17:08:29.730Z,8.07
2023-05-21T17:10:56.262Z,8.20
2023-05-21T17:13:23.379Z,7.93
2023-05-21T17:15:50.935Z,8.13
2023-05-21T17:18:17.745Z,8.45
2023-05-21T17:20:44.337Z,8.55
2023-05-21T17:23:11.167Z,8.45
2023-05-21T17:25:38.060Z,7.75
2023-05-21T17:28:05.046Z,8.02
2023-05-21T17:30:31.582Z,8.07
2023-05-21T17:32:58.182Z,8.25
2023-05-21T17:35:24.903Z,9.00
2023-05-21T17:37:52.742Z,8.57
2023-05-21T17:40:20.606Z,8.20
2023-05-21T17:42:47.815Z,8.90
2023-05-21T17:45:14.391Z,8.48
2023-05-21T17:47:40.999Z,8.45
2023-05-21T17:50:08.772Z,8.82
2023-05-21T17:52:35.290Z,8.80
2023-05-21T17:55:02.109Z,8.77
2023-05-21T17:57:28.444Z,8.90
2023-05-21T17:59:54.996Z,8.77
2023-05-21T18:02:22.732Z,8.70
2023-05-21T18:04:49.287Z,9.18
2023-05-21T18:07:15.876Z,9.23
2023-05-21T18:09:42.411Z,8.60
2023-05-21T18:12:09.073Z,8.65
2023-05-21T18:14:35.589Z,9.15
2023-05-21T18:17:02.277Z,9.20
2023-05-21T18:19:29.061Z,9.75
2023-05-21T18:21:56.662Z,9.10
2023-05-21T18:24:23.232Z,9.15
2023-05-21T18:26:49.744Z,9.60
2023-05-21T18:29:16.289Z,10.95
2023-05-21T18:31:46.036Z,9.32
2023-05-21T18:34:12.656Z,9.45
2023-05-21T18:36:39.360Z,10.35
2023-05-21T18:39:07.318Z,9.88
2023-05-21T18:41:34.098Z,9.93
2023-05-21T18:44:01.125Z,9.63
2023-05-21T18:46:28.521Z,9.98
2023-05-21T18:48:55.629Z,9.52
2023-05-21T18:51:22.337Z,9.50
2023-05-21T18:53:48.877Z,9.85
2023-05-21T18:56:16.239Z,10.95
2023-05-21T18:58:42.781Z,11.82
2023-05-21T19:01:09.764Z,12.27
2023-05-21T19:03:39.330Z,10.82
2023-05-21T19:06:05.881Z,11.57
2023-05-21T19:08:32.968Z,11.12
2023-05-21T19:10:59.679Z,11.60
2023-05-21T19:13:26.215Z,11.30
2023-05-21T19:15:52.830Z,11.23
2023-05-21T19:18:19.375Z,10.98
2023-05-21T19:20:45.936Z,11.05
2023-05-21T19:23:12.559Z,11.63
2023-05-21T19:25:39.108Z,11.70
2023-05-21T19:28:05.631Z,10.98
2023-05-21T19:30:34.074Z,11.25
2023-05-21T19:33:00.927Z,10.85
2023-05-21T19:35:27.484Z,10.90
2023-05-21T19:37:57.954Z,10.65
2023-05-21T19:40:24.838Z,10.80
2023-05-21T19:42:51.423Z,10.88
2023-05-21T19:45:20.434Z,10.73
2023-05-21T19:47:47.111Z,11.00
2023-05-21T19:50:13.634Z,10.85
2023-05-21T19:52:40.304Z,11.95
2023-05-21T19:55:09.405Z,10.82
2023-05-21T19:57:36.464Z,10.80
2023-05-21T20:00:04.601Z,11.68
2023-05-21T20:02:31.184Z,11.00
2023-05-21T20:04:58.299Z,10.40
2023-05-21T20:07:24.849Z,11.05
2023-05-21T20:09:51.690Z,11.68
2023-05-21T20:12:18.330Z,10.57
2023-05-21T20:14:46.762Z,11.50
2023-05-21T20:17:13.925Z,11.50
2023-05-21T20:19:40.500Z,10.98
2023-05-21T20:22:07.058Z,11.15
2023-05-21T20:24:33.720Z,11.98
2023-05-21T20:27:00.791Z,11.02
2023-05-21T20:29:27.993Z,11.70
2023-05-21T20:31:54.579Z,11.45
2023-05-21T20:34:21.096Z,11.57
2023-05-21T20:36:47.701Z,11.80
2023-05-21T20:39:14.864Z,11.57
2023-05-21T20:41:43.887Z,11.93
2023-05-21T20:44:10.456Z,12.00
2023-05-21T20:46:38.564Z,12.35
2023-05-21T20:49:05.474Z,12.27
2023-05-21T20:51:32.421Z,12.18
2023-05-21T20:53:59.055Z,12.37
2023-05-21T20:56:39.987Z,11.90
2023-05-21T20:59:10.471Z,11.38
2023-05-21T21:01:38.084Z,11.93
2023-05-21T21:04:05.158Z,12.07
2023-05-21T21:06:31.829Z,11.50
2023-05-21T21:08:58.546Z,12.23
2023-05-21T21:11:25.907Z,12.23
2023-05-21T21:13:52.682Z,11.75
2023-05-21T21:16:19.276Z,11.90
2023-05-21T21:18:46.271Z,11.93
2023-05-21T21:21:13.001Z,11.65
2023-05-21T21:23:39.539Z,11.70
2023-05-21T21:26:06.389Z,11.70
2023-05-21T21:28:32.943Z,12.70
2023-05-21T21:30:59.560Z,11.38
2023-05-21T21:33:26.100Z,11.98
2023-05-21T21:35:52.653Z,12.95
2023-05-21T21:38:19.225Z,11.80
2023-05-21T21:40:45.793Z,12.50
2023-05-21T21:43:12.319Z,12.05
2023-05-21T21:45:38.938Z,11.87
2023-05-21T21:48:06.174Z,11.93
2023-05-21T21:50:32.759Z,11.93
2023-05-21T21:53:00.388Z,11.73
2023-05-21T21:55:26.943Z,11.97
2023-05-21T21:57:53.483Z,11.95
2023-05-21T22:00:20.308Z,12.43
2023-05-21T22:02:46.888Z,11.87
2023-05-21T22:05:13.997Z,11.60
2023-05-21T22:07:45.707Z,12.20
2023-05-21T22:10:16.296Z,11.83
2023-05-21T22:12:44.116Z,12.20
2023-05-21T22:15:27.925Z,10.93
2023-05-21T22:17:54.896Z,11.27
2023-05-21T22:20:22.580Z,10.17
2023-05-21T22:22:49.571Z,9.93
2023-05-21T22:25:16.379Z,11.15
2023-05-21T22:27:43.462Z,10.90
2023-05-21T22:30:10.915Z,11.55
2023-05-21T22:32:37.857Z,11.23
2023-05-21T22:35:05.646Z,11.02
2023-05-21T22:37:32.227Z,11.52
2023-05-21T22:39:58.765Z,11.57
2023-05-21T22:42:25.317Z,10.63
2023-05-21T22:44:51.885Z,10.60
2023-05-21T22:47:22.224Z,12.27
2023-05-21T22:49:51.253Z,13.00
2023-05-21T22:52:20.866Z,12.70
2023-05-21T22:54:48.834Z,11.83
2023-05-21T22:57:15.736Z,10.83
2023-05-21T22:59:42.245Z,11.03
2023-05-21T23:02:09.185Z,11.40
2023-05-21T23:04:43.814Z,11.60
2023-05-21T23:07:11.724Z,11.30
2023-05-21T23:09:38.280Z,11.57
2023-05-21T23:12:05.550Z,10.27
2023-05-21T23:14:32.103Z,10.85
2023-05-21T23:17:01.056Z,11.27
2023-05-21T23:19:28.736Z,11.27
2023-05-21T23:21:55.539Z,11.57
2023-05-21T23:24:22.188Z,12.20
2023-05-21T23:26:48.772Z,12.60
2023-05-21T23:29:15.307Z,12.45
2023-05-21T23:31:41.930Z,10.70
2023-05-21T23:34:08.864Z,11.10
2023-05-21T23:36:35.486Z,11.57
2023-05-21T23:39:02.064Z,10.80
2023-05-21T23:41:31.280Z,11.63
2023-05-21T23:43:57.807Z,11.43
2023-05-21T23:46:24.432Z,11.73
2023-05-21T23:48:50.987Z,12.03
2023-05-21T23:51:18.545Z,11.50
2023-05-21T23:53:45.142Z,12.03
2023-05-21T23:56:11.703Z,12.17
2023-05-21T23:58:38.244Z,11.68
